Cedron, Missouri
Current Conditions -  °F | °C
As of 8:54 PM on Friday 24 Oct 2014 (Local Time) from KCOU Reporting Station
Clear Clear  
Wind Chill: 65°   Ceiling: Unl
Heat Index: 65°   Visibility: 10mi
Dew Point: 59°   Wind: 8mph
Humidity: 81%   Direction: 200°SSW
Pressure: 29.98"   Gusts: NA
Location:  38.7914°N, 92.4851°W
Report Text: KCOU 250154Z AUTO 20007KT 10SM CLR 18/15 A2998 RMK AO2 SLP150 T01830150
Loading
Personal Weather Stations






























Interactive Weather Map
Tropical Storm Tracking
New forecast layout! Learn more

10-Day Weather Forecast

Advertisements
Track Severe Weather on mobile